Decoded Metar for ULAA (ARHANGELSK in RUSSIA) (IATA:N/A) | Meteo·Mobile Aviation Weather
aviador You're here:

ULAA Decoded Metar

ARHANGELSK in RUSSIA
Report Time2018-12-11 11:30:00
UTC Time2018-12-11 11:56:50
Flight Rules mvfr MVFR
Wind100° at 2 kt
W.Decomp.*RWY 08: 2.0 kt HW 0.2 kt RCW
W.Rank100° ranks 21
Current wind is below 100° avg. (6.4)
Visibility9000 m
Phenomena:Light Snow
Clouds:Overcast 012 Hf
Expected CloudBase > 400 ft AGL from Temp-Dew spread
Ceiling1,200 ft
Temp-6°C (ISA -21)
Dew Point-7°C (93% RH)
AAT-9.5°C
QNH1018 hPa
Density Alt-2,648 ft
Elevation62 ft
Report Wrong Elevation
Raw Report
ULAA 111130Z 10001MPS 9000 -SN OVC012 M06/M07 Q1018 R08/490341
NOSIG RMK QFE762/1017=

Extra information for ULAA:More info

Metar Taf Metar & Taf Last 4 Metars F.Rules Stats Wind Profile Meteogram Temp Stats Airport Information Weather charts Add Link Nearby VenuesMetar ALERT Operation Metar Decoded Social comments